createdAt,value
2022-10-30T00:00:35.000Z,283.96
2022-10-30T00:02:02.000Z,283.9
2022-10-30T00:04:08.000Z,283.96
2022-10-30T00:05:35.000Z,283.96
2022-10-30T00:07:41.000Z,283.9
2022-10-30T00:09:07.000Z,283.96
2022-10-30T00:11:13.000Z,283.96
2022-10-30T00:12:40.000Z,284.02
2022-10-30T00:14:46.000Z,283.96
2022-10-30T00:17:37.000Z,283.96
2022-10-30T00:19:04.000Z,283.96
2022-10-30T00:21:10.000Z,283.96
2022-10-30T00:22:36.000Z,283.96
2022-10-30T00:24:42.000Z,284.02
2022-10-30T00:26:09.000Z,284.02
2022-10-30T00:28:15.000Z,284.09
2022-10-30T00:29:41.000Z,284.09
2022-10-30T00:31:47.000Z,283.96
2022-10-30T00:33:14.000Z,283.96
2022-10-30T00:35:20.000Z,283.96
2022-10-30T00:36:47.000Z,283.96
2022-10-30T00:38:53.000Z,284.02
2022-10-30T00:40:19.000Z,284.02
2022-10-30T00:42:25.000Z,283.96
2022-10-30T00:43:52.000Z,283.96
2022-10-30T00:45:58.000Z,283.9
2022-10-30T00:47:24.000Z,283.9
2022-10-30T00:49:30.000Z,283.96
2022-10-30T00:50:57.000Z,283.96
2022-10-30T00:53:03.000Z,283.77
2022-10-30T00:55:54.000Z,283.77
2022-10-30T00:57:21.000Z,283.71
2022-10-30T00:59:27.000Z,283.77
2022-10-30T01:00:53.000Z,283.77
2022-10-30T01:02:59.000Z,283.71
2022-10-30T01:04:26.000Z,283.71
2022-10-30T01:06:34.000Z,283.77
2022-10-30T01:08:01.000Z,283.84
2022-10-30T01:10:07.000Z,283.77
2022-10-30T01:11:33.000Z,283.77
2022-10-30T01:13:39.000Z,283.77
2022-10-30T01:15:06.000Z,283.84
2022-10-30T01:17:12.000Z,283.84
2022-10-30T01:18:38.000Z,283.84
2022-10-30T01:20:44.000Z,283.84
2022-10-30T01:22:11.000Z,283.9
2022-10-30T01:24:17.000Z,283.96
2022-10-30T01:25:43.000Z,283.96
2022-10-30T01:27:50.000Z,283.96
2022-10-30T01:29:16.000Z,283.9
2022-10-30T01:31:22.000Z,283.9
2022-10-30T01:34:13.000Z,283.96
2022-10-30T01:35:40.000Z,283.96
2022-10-30T01:37:46.000Z,283.96
2022-10-30T01:39:12.000Z,283.96
2022-10-30T01:41:19.000Z,283.96
2022-10-30T01:42:45.000Z,283.96
2022-10-30T01:44:51.000Z,283.96
2022-10-30T01:46:18.000Z,284.02
2022-10-30T01:48:24.000Z,284.02
2022-10-30T01:49:50.000Z,284.02
2022-10-30T01:51:56.000Z,284.02
2022-10-30T01:53:23.000Z,284.02
2022-10-30T01:55:29.000Z,283.96
2022-10-30T01:56:55.000Z,284.02
2022-10-30T01:59:01.000Z,283.96
2022-10-30T02:00:28.000Z,283.96
2022-10-30T02:02:34.000Z,284.02
2022-10-30T02:06:07.000Z,284.02
2022-10-30T02:07:33.000Z,284.02
2022-10-30T02:09:40.000Z,284.02
2022-10-30T02:12:31.000Z,284.09
2022-10-30T02:13:57.000Z,284.09
2022-10-30T02:16:03.000Z,284.09
2022-10-30T02:17:30.000Z,284.09
2022-10-30T02:19:36.000Z,284.15
2022-10-30T02:21:02.000Z,284.21
2022-10-30T02:23:09.000Z,284.15
2022-10-30T02:24:35.000Z,284.21
2022-10-30T02:26:41.000Z,284.21
2022-10-30T02:28:08.000Z,284.15
2022-10-30T02:30:14.000Z,284.21
2022-10-30T02:31:40.000Z,284.15
2022-10-30T02:33:47.000Z,284.15
2022-10-30T02:35:13.000Z,284.21
2022-10-30T02:37:19.000Z,284.15
2022-10-30T02:38:46.000Z,284.15
2022-10-30T02:40:52.000Z,284.15
2022-10-30T02:42:18.000Z,284.15
2022-10-30T02:44:24.000Z,284.09
2022-10-30T02:45:51.000Z,284.15
2022-10-30T02:47:57.000Z,284.09
2022-10-30T02:50:48.000Z,284.09
2022-10-30T02:52:15.000Z,284.02
2022-10-30T02:54:21.000Z,284.02
2022-10-30T02:55:48.000Z,284.02
2022-10-30T02:57:54.000Z,284.09
2022-10-30T02:59:20.000Z,284.09
2022-10-30T03:01:26.000Z,284.09
2022-10-30T03:02:53.000Z,284.09
2022-10-30T03:04:59.000Z,284.09
2022-10-30T03:06:26.000Z,284.09
2022-10-30T03:08:32.000Z,284.09
2022-10-30T03:09:58.000Z,284.02
2022-10-30T03:12:04.000Z,284.09
2022-10-30T03:13:31.000Z,284.02
2022-10-30T03:15:37.000Z,284.02
2022-10-30T03:17:04.000Z,283.96
2022-10-30T03:19:10.000Z,283.96
2022-10-30T03:20:36.000Z,283.96
2022-10-30T03:22:42.000Z,283.96
2022-10-30T03:24:09.000Z,283.9
2022-10-30T03:26:15.000Z,283.9
2022-10-30T03:29:06.000Z,283.84
2022-10-30T03:30:33.000Z,283.84
2022-10-30T03:32:39.000Z,283.84
2022-10-30T03:34:05.000Z,283.84
2022-10-30T03:36:12.000Z,283.77
2022-10-30T03:37:38.000Z,283.77
2022-10-30T03:39:44.000Z,283.77
2022-10-30T03:41:11.000Z,283.77
2022-10-30T03:43:17.000Z,283.77
2022-10-30T03:44:43.000Z,283.77
2022-10-30T03:46:49.000Z,283.77
2022-10-30T03:48:16.000Z,283.77
2022-10-30T03:50:22.000Z,283.77
2022-10-30T03:51:49.000Z,283.77
2022-10-30T03:53:55.000Z,283.77
2022-10-30T03:55:21.000Z,283.77
2022-10-30T03:57:27.000Z,283.77
2022-10-30T03:58:54.000Z,283.77
2022-10-30T04:01:00.000Z,283.77
2022-10-30T04:02:26.000Z,283.71
2022-10-30T04:04:33.000Z,283.71
2022-10-30T04:07:24.000Z,283.65
2022-10-30T04:08:50.000Z,283.65
2022-10-30T04:10:56.000Z,283.71
2022-10-30T04:12:23.000Z,283.71
2022-10-30T04:14:29.000Z,283.71
2022-10-30T04:15:56.000Z,283.71
2022-10-30T04:18:02.000Z,283.65
2022-10-30T04:19:29.000Z,283.65
2022-10-30T04:21:35.000Z,283.65
2022-10-30T04:23:01.000Z,283.59
2022-10-30T04:25:07.000Z,283.59
2022-10-30T04:26:34.000Z,283.59
2022-10-30T04:28:40.000Z,283.59
2022-10-30T04:30:06.000Z,283.59
2022-10-30T04:32:12.000Z,283.65
2022-10-30T04:33:39.000Z,283.59
2022-10-30T04:35:45.000Z,283.65
2022-10-30T04:37:12.000Z,283.65
2022-10-30T04:39:18.000Z,283.59
2022-10-30T04:40:44.000Z,283.59
2022-10-30T04:42:50.000Z,283.59
2022-10-30T04:45:42.000Z,283.59
2022-10-30T04:47:08.000Z,283.52
2022-10-30T04:49:14.000Z,283.59
2022-10-30T04:50:41.000Z,283.52
2022-10-30T04:52:47.000Z,283.46
2022-10-30T04:54:13.000Z,283.52
2022-10-30T04:56:19.000Z,283.52
2022-10-30T04:57:46.000Z,283.52
2022-10-30T04:59:52.000Z,283.52
2022-10-30T05:01:19.000Z,283.52
2022-10-30T05:03:25.000Z,283.46
2022-10-30T05:04:51.000Z,283.46
2022-10-30T05:06:58.000Z,283.4
2022-10-30T05:08:24.000Z,283.4
2022-10-30T05:10:30.000Z,283.46
2022-10-30T05:11:57.000Z,283.4
2022-10-30T05:14:04.000Z,283.46
2022-10-30T05:15:30.000Z,283.46
2022-10-30T05:17:36.000Z,283.46
2022-10-30T05:19:03.000Z,283.52
2022-10-30T05:21:09.000Z,283.52
2022-10-30T05:24:00.000Z,283.52
2022-10-30T05:25:27.000Z,283.52
2022-10-30T05:27:33.000Z,283.52
2022-10-30T05:28:59.000Z,283.52
2022-10-30T05:31:06.000Z,283.59
2022-10-30T05:32:32.000Z,283.65
2022-10-30T05:34:38.000Z,283.59
2022-10-30T05:36:05.000Z,283.65
2022-10-30T05:38:11.000Z,283.77
2022-10-30T05:39:37.000Z,283.77
2022-10-30T05:41:43.000Z,283.65
2022-10-30T05:43:10.000Z,283.71
2022-10-30T05:45:16.000Z,283.65
2022-10-30T05:46:42.000Z,283.71
2022-10-30T05:48:49.000Z,283.65
2022-10-30T05:50:15.000Z,283.65
2022-10-30T05:52:21.000Z,283.65
2022-10-30T05:53:48.000Z,283.65
2022-10-30T05:55:54.000Z,283.65
2022-10-30T05:57:20.000Z,283.65
2022-10-30T05:59:26.000Z,283.65
2022-10-30T06:02:18.000Z,283.59
2022-10-30T06:03:44.000Z,283.59
2022-10-30T06:05:50.000Z,283.52
2022-10-30T06:07:17.000Z,283.59
2022-10-30T06:09:23.000Z,283.59
2022-10-30T06:10:50.000Z,283.59
2022-10-30T06:12:56.000Z,283.59
2022-10-30T06:14:23.000Z,283.65
2022-10-30T06:17:56.000Z,283.71
2022-10-30T06:20:03.000Z,283.71
2022-10-30T06:21:29.000Z,283.77
2022-10-30T06:23:35.000Z,283.77
2022-10-30T06:25:02.000Z,283.77
2022-10-30T06:27:08.000Z,283.84
2022-10-30T06:28:35.000Z,283.77
2022-10-30T06:30:41.000Z,283.77
2022-10-30T06:32:07.000Z,283.77
2022-10-30T06:34:13.000Z,283.84
2022-10-30T06:35:40.000Z,283.9
2022-10-30T06:37:46.000Z,283.9
2022-10-30T06:40:37.000Z,283.96
2022-10-30T06:42:04.000Z,283.96
2022-10-30T06:44:10.000Z,284.02
2022-10-30T06:45:37.000Z,283.96
2022-10-30T06:47:43.000Z,284.02
2022-10-30T06:49:09.000Z,284.02
2022-10-30T06:51:15.000Z,284.02
2022-10-30T06:52:42.000Z,283.96
2022-10-30T06:54:48.000Z,284.02
2022-10-30T06:56:14.000Z,284.02
2022-10-30T06:58:21.000Z,284.09
2022-10-30T06:59:47.000Z,284.09
2022-10-30T07:01:53.000Z,284.09
2022-10-30T07:03:25.000Z,284.15
2022-10-30T07:05:31.000Z,284.21
2022-10-30T07:06:58.000Z,284.21
2022-10-30T07:09:04.000Z,284.34
2022-10-30T07:10:30.000Z,284.4
2022-10-30T07:12:36.000Z,284.4
2022-10-30T07:14:03.000Z,284.4
2022-10-30T07:16:09.000Z,284.46
2022-10-30T07:19:00.000Z,284.4
2022-10-30T07:20:29.000Z,284.46
2022-10-30T07:22:35.000Z,284.59
2022-10-30T07:24:02.000Z,284.65
2022-10-30T07:26:08.000Z,284.71
2022-10-30T07:27:34.000Z,284.77
2022-10-30T07:29:40.000Z,284.84
2022-10-30T07:31:07.000Z,285.02
2022-10-30T07:33:13.000Z,285.02
2022-10-30T07:34:40.000Z,285.02
2022-10-30T07:36:46.000Z,285.09
2022-10-30T07:38:12.000Z,285.09
2022-10-30T07:40:18.000Z,285.02
2022-10-30T07:41:45.000Z,285.02
2022-10-30T07:43:54.000Z,284.96
2022-10-30T07:45:20.000Z,284.96
2022-10-30T07:47:26.000Z,284.96
2022-10-30T07:48:53.000Z,284.96
2022-10-30T07:50:59.000Z,284.96
2022-10-30T07:52:26.000Z,285.02
2022-10-30T07:54:32.000Z,285.09
2022-10-30T07:57:23.000Z,285.15
2022-10-30T07:58:49.000Z,285.27
2022-10-30T08:00:55.000Z,285.27
2022-10-30T08:02:22.000Z,285.4
2022-10-30T08:04:29.000Z,285.46
2022-10-30T08:05:55.000Z,285.52
2022-10-30T08:08:01.000Z,285.59
2022-10-30T08:09:28.000Z,285.65
2022-10-30T08:11:34.000Z,285.77
2022-10-30T08:13:01.000Z,285.9
2022-10-30T08:15:07.000Z,286.09
2022-10-30T08:16:33.000Z,286.15
2022-10-30T08:18:39.000Z,286.27
2022-10-30T08:20:06.000Z,286.21
2022-10-30T08:22:12.000Z,286.4
2022-10-30T08:23:39.000Z,286.4
2022-10-30T08:25:45.000Z,286.4
2022-10-30T08:27:11.000Z,286.4
2022-10-30T08:29:17.000Z,286.4
2022-10-30T08:30:44.000Z,286.46
2022-10-30T08:32:50.000Z,286.46
2022-10-30T08:35:41.000Z,286.46
2022-10-30T08:37:08.000Z,286.46
2022-10-30T08:39:14.000Z,286.52
2022-10-30T08:40:41.000Z,286.52
2022-10-30T08:42:47.000Z,286.71
2022-10-30T08:44:13.000Z,286.65
2022-10-30T08:46:19.000Z,286.65
2022-10-30T08:47:46.000Z,286.71
2022-10-30T08:49:52.000Z,286.65
2022-10-30T08:51:18.000Z,286.65
2022-10-30T08:53:25.000Z,286.71
2022-10-30T08:54:51.000Z,286.71
2022-10-30T08:56:57.000Z,286.71
2022-10-30T08:58:24.000Z,286.71
2022-10-30T09:00:30.000Z,286.77
2022-10-30T09:01:57.000Z,286.9
2022-10-30T09:04:03.000Z,287.02
2022-10-30T09:05:29.000Z,287.09
2022-10-30T09:07:36.000Z,287.21
2022-10-30T09:09:02.000Z,287.21
2022-10-30T09:11:08.000Z,287.27
2022-10-30T09:13:59.000Z,287.4
2022-10-30T09:15:26.000Z,287.46
2022-10-30T09:17:32.000Z,287.59
2022-10-30T09:18:58.000Z,287.59
2022-10-30T09:21:05.000Z,287.77
2022-10-30T09:22:31.000Z,287.84
2022-10-30T09:24:37.000Z,287.84
2022-10-30T09:26:04.000Z,287.9
2022-10-30T09:28:10.000Z,288.02
2022-10-30T09:29:36.000Z,288.02
2022-10-30T09:31:42.000Z,288.15
2022-10-30T09:33:09.000Z,288.15
2022-10-30T09:35:15.000Z,288.21
2022-10-30T09:36:41.000Z,288.34
2022-10-30T09:38:48.000Z,288.4
2022-10-30T09:40:14.000Z,288.4
2022-10-30T09:42:20.000Z,288.46
2022-10-30T09:43:47.000Z,288.46
2022-10-30T09:45:53.000Z,288.52
2022-10-30T09:47:19.000Z,288.52
2022-10-30T09:49:27.000Z,288.59
2022-10-30T09:52:19.000Z,288.77
2022-10-30T09:53:45.000Z,288.9
2022-10-30T09:55:51.000Z,288.84
2022-10-30T09:57:18.000Z,288.96
2022-10-30T09:59:24.000Z,289.02
2022-10-30T10:00:51.000Z,289.02
2022-10-30T10:02:57.000Z,289.09
2022-10-30T10:04:24.000Z,289.09
2022-10-30T10:06:31.000Z,289.09
2022-10-30T10:07:57.000Z,289.15
2022-10-30T10:10:04.000Z,289.15
2022-10-30T10:11:31.000Z,289.27
2022-10-30T10:13:37.000Z,289.34
2022-10-30T10:15:03.000Z,289.52
2022-10-30T10:17:09.000Z,289.77
2022-10-30T10:18:36.000Z,290.09
2022-10-30T10:20:42.000Z,290.15
2022-10-30T10:22:09.000Z,290.27
2022-10-30T10:24:15.000Z,290.34
2022-10-30T10:25:44.000Z,290.34
2022-10-30T10:27:50.000Z,290.52
2022-10-30T10:30:41.000Z,290.15
2022-10-30T10:32:08.000Z,290.09
2022-10-30T10:34:14.000Z,290.4
2022-10-30T10:35:40.000Z,290.4
2022-10-30T10:37:47.000Z,290.34
2022-10-30T10:39:13.000Z,290.46
2022-10-30T10:41:19.000Z,290.52
2022-10-30T10:42:46.000Z,290.34
2022-10-30T10:44:52.000Z,290.71
2022-10-30T10:46:18.000Z,290.52
2022-10-30T10:48:24.000Z,290.27
2022-10-30T10:49:51.000Z,290.34
2022-10-30T10:51:57.000Z,290.34
2022-10-30T10:53:23.000Z,290.52
2022-10-30T10:55:29.000Z,290.65
2022-10-30T10:56:56.000Z,290.52
2022-10-30T10:59:02.000Z,290.59
2022-10-30T11:00:29.000Z,290.46
2022-10-30T11:02:35.000Z,290.52
2022-10-30T11:04:01.000Z,290.52
2022-10-30T11:06:08.000Z,290.59
2022-10-30T11:08:59.000Z,290.59
2022-10-30T11:10:25.000Z,290.52
2022-10-30T11:12:32.000Z,290.96
2022-10-30T11:14:01.000Z,291.27
2022-10-30T11:16:07.000Z,291.71
2022-10-30T11:17:33.000Z,291.65
2022-10-30T11:19:39.000Z,291.27
2022-10-30T11:21:06.000Z,291.09
2022-10-30T11:23:12.000Z,291.09
2022-10-30T11:24:38.000Z,291.02
2022-10-30T11:26:45.000Z,291.9
2022-10-30T11:28:11.000Z,291.52
2022-10-30T11:30:17.000Z,291.34
2022-10-30T11:31:44.000Z,291.4
2022-10-30T11:33:50.000Z,291.27
2022-10-30T11:35:16.000Z,291.15
2022-10-30T11:37:22.000Z,291.27
2022-10-30T11:38:49.000Z,291.46
2022-10-30T11:40:55.000Z,291.27
2022-10-30T11:42:22.000Z,291.21
2022-10-30T11:44:28.000Z,291.77
2022-10-30T11:47:19.000Z,291.84
2022-10-30T11:48:46.000Z,291.96
2022-10-30T11:50:52.000Z,291.71
2022-10-30T11:52:18.000Z,292.21
2022-10-30T11:54:25.000Z,291.9
2022-10-30T11:55:51.000Z,292.21
2022-10-30T11:57:57.000Z,292.27
2022-10-30T11:59:24.000Z,291.96
2022-10-30T12:01:30.000Z,291.9
2022-10-30T12:02:57.000Z,291.71
2022-10-30T12:05:04.000Z,292.15
2022-10-30T12:06:30.000Z,292.02
2022-10-30T12:08:36.000Z,292.02
2022-10-30T12:10:03.000Z,291.96
2022-10-30T12:12:09.000Z,292.27
2022-10-30T12:13:35.000Z,292.34
2022-10-30T12:15:41.000Z,292.59
2022-10-30T12:17:08.000Z,292.65
2022-10-30T12:19:14.000Z,292.46
2022-10-30T12:20:41.000Z,292.46
2022-10-30T12:22:47.000Z,292.84
2022-10-30T12:25:38.000Z,292.71
2022-10-30T12:27:05.000Z,292.65
2022-10-30T12:29:11.000Z,292.59
2022-10-30T12:30:37.000Z,292.52
2022-10-30T12:32:43.000Z,292.84
2022-10-30T12:36:16.000Z,293.02
2022-10-30T12:37:42.000Z,292.96
2022-10-30T12:39:48.000Z,292.65
2022-10-30T12:41:15.000Z,292.59
2022-10-30T12:43:21.000Z,292.65
2022-10-30T12:44:47.000Z,292.65
2022-10-30T12:46:54.000Z,292.52
2022-10-30T12:48:20.000Z,292.59
2022-10-30T12:50:26.000Z,292.34
2022-10-30T12:51:53.000Z,292.4
2022-10-30T12:53:59.000Z,292.46
2022-10-30T12:55:25.000Z,292.46
2022-10-30T12:57:31.000Z,292.46
2022-10-30T12:58:58.000Z,292.59
2022-10-30T13:01:04.000Z,292.52
2022-10-30T13:03:55.000Z,292.77
2022-10-30T13:05:22.000Z,292.84
2022-10-30T13:07:28.000Z,292.9
2022-10-30T13:08:54.000Z,293.02
2022-10-30T13:11:00.000Z,292.96
2022-10-30T13:12:27.000Z,292.96
2022-10-30T13:14:33.000Z,293.52
2022-10-30T13:16:00.000Z,293.77
2022-10-30T13:18:06.000Z,293.71
2022-10-30T13:19:32.000Z,293.84
2022-10-30T13:21:38.000Z,294.02
2022-10-30T13:23:05.000Z,293.84
2022-10-30T13:25:11.000Z,293.77
2022-10-30T13:26:38.000Z,293.9
2022-10-30T13:28:44.000Z,293.96
2022-10-30T13:30:10.000Z,293.96
2022-10-30T13:32:17.000Z,294.02
2022-10-30T13:33:43.000Z,294.02
2022-10-30T13:35:49.000Z,293.96
2022-10-30T13:37:16.000Z,293.96
2022-10-30T13:39:22.000Z,293.59
2022-10-30T13:42:13.000Z,293.9
2022-10-30T13:43:39.000Z,293.9
2022-10-30T13:45:47.000Z,293.52
2022-10-30T13:47:13.000Z,293.46
2022-10-30T13:49:20.000Z,293.21
2022-10-30T13:50:46.000Z,293.21
2022-10-30T13:52:52.000Z,293.27
2022-10-30T13:54:19.000Z,293.34
2022-10-30T13:56:25.000Z,293.21
2022-10-30T13:57:51.000Z,293.4
2022-10-30T13:59:57.000Z,293.27
2022-10-30T14:01:24.000Z,293.27
2022-10-30T14:03:30.000Z,293.27
2022-10-30T14:04:57.000Z,293.46
2022-10-30T14:07:03.000Z,293.46
2022-10-30T14:10:35.000Z,293.34
2022-10-30T14:12:02.000Z,293.4
2022-10-30T14:14:08.000Z,293.34
2022-10-30T14:15:35.000Z,293.27
2022-10-30T14:17:41.000Z,293.21
2022-10-30T14:20:32.000Z,293.46
2022-10-30T14:21:59.000Z,293.52
2022-10-30T14:24:05.000Z,293.46
2022-10-30T14:25:31.000Z,293.52
2022-10-30T14:27:37.000Z,293.52
2022-10-30T14:29:04.000Z,293.34
2022-10-30T14:31:10.000Z,293.15
2022-10-30T14:32:36.000Z,293.21
2022-10-30T14:34:42.000Z,293.15
2022-10-30T14:36:09.000Z,293.15
2022-10-30T14:38:15.000Z,293.27
2022-10-30T14:39:42.000Z,293.34
2022-10-30T14:41:48.000Z,293.27
2022-10-30T14:43:14.000Z,293.15
2022-10-30T14:45:20.000Z,292.96
2022-10-30T14:46:47.000Z,292.96
2022-10-30T14:48:53.000Z,292.84
2022-10-30T14:50:20.000Z,292.77
2022-10-30T14:52:26.000Z,292.71
2022-10-30T14:53:52.000Z,292.59
2022-10-30T14:55:59.000Z,292.71
2022-10-30T14:58:50.000Z,292.65
2022-10-30T15:00:16.000Z,292.59
2022-10-30T15:02:23.000Z,292.46
2022-10-30T15:03:49.000Z,292.34
2022-10-30T15:05:55.000Z,292.21
2022-10-30T15:07:22.000Z,292.21
2022-10-30T15:09:28.000Z,292.02
2022-10-30T15:10:55.000Z,291.96
2022-10-30T15:13:01.000Z,291.77
2022-10-30T15:14:28.000Z,291.65
2022-10-30T15:16:57.000Z,291.46
2022-10-30T15:18:23.000Z,291.34
2022-10-30T15:20:34.000Z,291.15
2022-10-30T15:22:01.000Z,291.09
2022-10-30T15:24:07.000Z,290.96
2022-10-30T15:25:34.000Z,290.9
2022-10-30T15:27:40.000Z,290.77
2022-10-30T15:29:06.000Z,290.71
2022-10-30T15:31:12.000Z,290.59
2022-10-30T15:32:39.000Z,290.46
2022-10-30T15:34:45.000Z,290.34
2022-10-30T15:37:36.000Z,290.15
2022-10-30T15:39:03.000Z,290.09
2022-10-30T15:41:09.000Z,289.96
2022-10-30T15:42:35.000Z,289.96
2022-10-30T15:44:41.000Z,289.84
2022-10-30T15:46:08.000Z,289.84
2022-10-30T15:48:14.000Z,289.71
2022-10-30T15:49:40.000Z,289.59
2022-10-30T15:51:46.000Z,289.52
2022-10-30T15:53:13.000Z,289.46
2022-10-30T15:55:19.000Z,289.4
2022-10-30T15:56:46.000Z,289.34
2022-10-30T15:59:35.000Z,289.4
2022-10-30T16:01:02.000Z,289.15
2022-10-30T16:03:08.000Z,289.09
2022-10-30T16:04:34.000Z,289.09
2022-10-30T16:06:41.000Z,288.9
2022-10-30T16:08:07.000Z,288.9
2022-10-30T16:10:13.000Z,288.77
2022-10-30T16:11:40.000Z,288.71
2022-10-30T16:13:46.000Z,288.71
2022-10-30T16:16:37.000Z,288.59
2022-10-30T16:18:04.000Z,288.46
2022-10-30T16:20:10.000Z,288.34
2022-10-30T16:21:36.000Z,288.4
2022-10-30T16:23:42.000Z,288.27
2022-10-30T16:25:09.000Z,288.27
2022-10-30T16:27:15.000Z,288.34
2022-10-30T16:28:42.000Z,288.27
2022-10-30T16:30:48.000Z,288.09
2022-10-30T16:32:14.000Z,288.02
2022-10-30T16:34:20.000Z,287.96
2022-10-30T16:35:47.000Z,287.96
2022-10-30T16:37:59.000Z,287.96
2022-10-30T16:39:26.000Z,287.77
2022-10-30T16:41:32.000Z,287.65
2022-10-30T16:42:58.000Z,287.52
2022-10-30T16:45:05.000Z,287.46
2022-10-30T16:46:32.000Z,287.46
2022-10-30T16:48:38.000Z,287.4
2022-10-30T16:50:04.000Z,287.4
2022-10-30T16:52:11.000Z,287.34
2022-10-30T16:55:02.000Z,287.27
2022-10-30T16:56:28.000Z,287.27
2022-10-30T16:58:35.000Z,287.27
2022-10-30T17:00:01.000Z,287.34
2022-10-30T17:02:07.000Z,287.27
2022-10-30T17:03:34.000Z,287.27
2022-10-30T17:05:40.000Z,287.27
2022-10-30T17:07:07.000Z,287.21
2022-10-30T17:09:13.000Z,287.15
2022-10-30T17:10:39.000Z,287.02
2022-10-30T17:12:45.000Z,286.9
2022-10-30T17:14:12.000Z,286.84
2022-10-30T17:16:18.000Z,286.71
2022-10-30T17:17:49.000Z,286.65
2022-10-30T17:19:55.000Z,286.59
2022-10-30T17:21:22.000Z,286.59
2022-10-30T17:23:28.000Z,286.52
2022-10-30T17:24:55.000Z,286.52
2022-10-30T17:27:02.000Z,286.52
2022-10-30T17:28:28.000Z,286.46
2022-10-30T17:30:35.000Z,286.46
2022-10-30T17:33:26.000Z,286.52
2022-10-30T17:34:52.000Z,286.52
2022-10-30T17:37:04.000Z,286.52
2022-10-30T17:38:31.000Z,286.46
2022-10-30T17:40:37.000Z,286.27
2022-10-30T17:42:03.000Z,286.21
2022-10-30T17:44:09.000Z,286.21
2022-10-30T17:45:36.000Z,286.21
2022-10-30T17:47:42.000Z,286.27
2022-10-30T17:49:08.000Z,286.27
2022-10-30T17:51:15.000Z,286.15
2022-10-30T17:52:41.000Z,286.09
2022-10-30T17:54:47.000Z,286.09
2022-10-30T17:56:14.000Z,286.09
2022-10-30T17:58:20.000Z,286.02
2022-10-30T17:59:46.000Z,286.02
2022-10-30T18:01:52.000Z,286.09
2022-10-30T18:03:19.000Z,286.02
2022-10-30T18:05:25.000Z,285.96
2022-10-30T18:06:52.000Z,285.96
2022-10-30T18:08:58.000Z,286.02
2022-10-30T18:11:49.000Z,285.96
2022-10-30T18:13:15.000Z,285.9
2022-10-30T18:15:21.000Z,285.84
2022-10-30T18:16:48.000Z,285.9
2022-10-30T18:18:59.000Z,285.9
2022-10-30T18:20:25.000Z,285.9
2022-10-30T18:22:32.000Z,285.84
2022-10-30T18:23:58.000Z,285.77
2022-10-30T18:26:04.000Z,285.65
2022-10-30T18:27:31.000Z,285.59
2022-10-30T18:29:37.000Z,285.52
2022-10-30T18:31:03.000Z,285.52
2022-10-30T18:33:09.000Z,285.4
2022-10-30T18:34:36.000Z,285.4
2022-10-30T18:36:42.000Z,285.4
2022-10-30T18:38:09.000Z,285.4
2022-10-30T18:40:15.000Z,285.4
2022-10-30T18:41:46.000Z,285.34
2022-10-30T18:43:53.000Z,285.34
2022-10-30T18:45:19.000Z,285.34
2022-10-30T18:47:25.000Z,285.34
2022-10-30T18:50:17.000Z,285.27
2022-10-30T18:51:43.000Z,285.21
2022-10-30T18:53:49.000Z,285.15
2022-10-30T18:55:16.000Z,285.15
2022-10-30T18:57:23.000Z,285.02
2022-10-30T18:58:49.000Z,285.02
2022-10-30T19:01:02.000Z,285.09
2022-10-30T19:02:36.000Z,285.09
2022-10-30T19:04:43.000Z,285.15
2022-10-30T19:06:09.000Z,285.15
2022-10-30T19:08:15.000Z,285.15
2022-10-30T19:09:42.000Z,285.09
2022-10-30T19:11:48.000Z,284.96
2022-10-30T19:13:15.000Z,284.84
2022-10-30T19:15:21.000Z,284.71
2022-10-30T19:16:48.000Z,284.65
2022-10-30T19:18:54.000Z,284.65
2022-10-30T19:20:21.000Z,284.71
2022-10-30T19:22:54.000Z,284.77
2022-10-30T19:24:21.000Z,284.84
2022-10-30T19:26:28.000Z,284.65
2022-10-30T19:29:19.000Z,284.52
2022-10-30T19:30:45.000Z,284.59
2022-10-30T19:32:51.000Z,284.46
2022-10-30T19:34:18.000Z,284.52
2022-10-30T19:36:24.000Z,284.46
2022-10-30T19:37:50.000Z,284.34
2022-10-30T19:39:57.000Z,284.27
2022-10-30T19:41:23.000Z,284.34
2022-10-30T19:43:29.000Z,284.34
2022-10-30T19:44:56.000Z,284.34
2022-10-30T19:47:02.000Z,284.27
2022-10-30T19:48:28.000Z,284.27
2022-10-30T19:51:01.000Z,284.27
2022-10-30T19:52:27.000Z,284.4
2022-10-30T19:54:33.000Z,284.34
2022-10-30T19:56:00.000Z,284.34
2022-10-30T19:58:06.000Z,284.34
2022-10-30T19:59:32.000Z,284.34
2022-10-30T20:01:38.000Z,284.27
2022-10-30T20:03:05.000Z,284.27
2022-10-30T20:05:11.000Z,284.15
2022-10-30T20:08:03.000Z,284.09
2022-10-30T20:09:29.000Z,284.15
2022-10-30T20:11:35.000Z,284.02
2022-10-30T20:13:02.000Z,284.02
2022-10-30T20:15:08.000Z,283.96
2022-10-30T20:16:34.000Z,283.96
2022-10-30T20:18:41.000Z,283.9
2022-10-30T20:20:07.000Z,283.84
2022-10-30T20:22:13.000Z,283.84
2022-10-30T20:23:40.000Z,283.77
2022-10-30T20:25:46.000Z,283.77
2022-10-30T20:27:12.000Z,283.77
2022-10-30T20:29:18.000Z,283.84
2022-10-30T20:30:45.000Z,283.9
2022-10-30T20:32:51.000Z,283.9
2022-10-30T20:34:17.000Z,283.84
2022-10-30T20:36:23.000Z,283.77
2022-10-30T20:37:50.000Z,283.84
2022-10-30T20:39:56.000Z,283.9
2022-10-30T20:41:23.000Z,283.96
2022-10-30T20:43:29.000Z,283.84
2022-10-30T20:46:20.000Z,283.84
2022-10-30T20:47:46.000Z,283.77
2022-10-30T20:49:52.000Z,283.77
2022-10-30T20:51:19.000Z,283.77
2022-10-30T20:53:25.000Z,283.77
2022-10-30T20:54:51.000Z,283.71
2022-10-30T20:56:58.000Z,283.71
2022-10-30T20:58:24.000Z,283.65
2022-10-30T21:00:30.000Z,283.65
2022-10-30T21:01:57.000Z,283.52
2022-10-30T21:04:03.000Z,283.46
2022-10-30T21:05:29.000Z,283.4
2022-10-30T21:07:48.000Z,283.46
2022-10-30T21:09:15.000Z,283.59
2022-10-30T21:11:21.000Z,283.52
2022-10-30T21:12:47.000Z,283.46
2022-10-30T21:14:53.000Z,283.46
2022-10-30T21:16:20.000Z,283.4
2022-10-30T21:18:26.000Z,283.34
2022-10-30T21:19:53.000Z,283.34
2022-10-30T21:21:59.000Z,283.27
2022-10-30T21:24:50.000Z,283.15
2022-10-30T21:26:16.000Z,283.09
2022-10-30T21:28:23.000Z,283.21
2022-10-30T21:29:49.000Z,283.15
2022-10-30T21:31:55.000Z,283.27
2022-10-30T21:33:22.000Z,283.27
2022-10-30T21:35:28.000Z,283.21
2022-10-30T21:36:54.000Z,283.21
2022-10-30T21:39:00.000Z,283.27
2022-10-30T21:40:27.000Z,283.27
2022-10-30T21:42:33.000Z,283.15
2022-10-30T21:44:00.000Z,283.15
2022-10-30T21:46:06.000Z,283.09
2022-10-30T21:47:32.000Z,283.02
2022-10-30T21:49:38.000Z,282.96
2022-10-30T21:51:05.000Z,282.9
2022-10-30T21:53:11.000Z,282.96
2022-10-30T21:54:38.000Z,282.9
2022-10-30T21:56:44.000Z,282.84
2022-10-30T21:58:10.000Z,282.84
2022-10-30T22:00:16.000Z,282.84
2022-10-30T22:03:07.000Z,282.84
2022-10-30T22:04:34.000Z,282.84
2022-10-30T22:06:40.000Z,282.77
2022-10-30T22:08:06.000Z,282.77
2022-10-30T22:10:13.000Z,282.77
2022-10-30T22:11:39.000Z,282.71
2022-10-30T22:13:45.000Z,282.77
2022-10-30T22:15:12.000Z,282.71
2022-10-30T22:17:18.000Z,282.71
2022-10-30T22:18:44.000Z,282.65
2022-10-30T22:20:50.000Z,282.71
2022-10-30T22:22:17.000Z,282.71
2022-10-30T22:24:23.000Z,282.65
2022-10-30T22:25:49.000Z,282.59
2022-10-30T22:27:56.000Z,282.52
2022-10-30T22:29:23.000Z,282.46
2022-10-30T22:31:29.000Z,282.46
2022-10-30T22:32:56.000Z,282.52
2022-10-30T22:35:02.000Z,282.46
2022-10-30T22:36:29.000Z,282.52
2022-10-30T22:38:35.000Z,282.52
2022-10-30T22:41:26.000Z,282.52
2022-10-30T22:42:57.000Z,282.46
2022-10-30T22:45:04.000Z,282.34
2022-10-30T22:46:30.000Z,282.27
2022-10-30T22:48:36.000Z,282.27
2022-10-30T22:50:03.000Z,282.27
2022-10-30T22:52:09.000Z,282.21
2022-10-30T22:53:35.000Z,282.15
2022-10-30T22:55:41.000Z,282.15
2022-10-30T22:57:08.000Z,282.21
2022-10-30T22:59:14.000Z,282.21